sensor_id;sensor_type;location;lat;lon;timestamp;temperature;humidity
19622;DHT22;9958;33.196;-97.114;2023-06-10T00:00:12;34.70;68.30
19622;DHT22;9958;33.196;-97.114;2023-06-10T00:02:41;34.60;68.50
19622;DHT22;9958;33.196;-97.114;2023-06-10T00:05:10;34.60;67.60
19622;DHT22;9958;33.196;-97.114;2023-06-10T00:07:38;34.50;67.80
19622;DHT22;9958;33.196;-97.114;2023-06-10T00:10:08;34.50;68.20
19622;DHT22;9958;33.196;-97.114;2023-06-10T00:12:38;34.50;68.90
19622;DHT22;9958;33.196;-97.114;2023-06-10T00:15:09;34.30;68.20
19622;DHT22;9958;33.196;-97.114;2023-06-10T00:17:37;34.20;69.70
19622;DHT22;9958;33.196;-97.114;2023-06-10T00:20:07;34.20;70.60
19622;DHT22;9958;33.196;-97.114;2023-06-10T00:22:38;34.10;71.50
19622;DHT22;9958;33.196;-97.114;2023-06-10T00:25:08;34.00;71.60
19622;DHT22;9958;33.196;-97.114;2023-06-10T00:27:38;33.80;72.40
19622;DHT22;9958;33.196;-97.114;2023-06-10T00:30:08;33.80;73.10
19622;DHT22;9958;33.196;-97.114;2023-06-10T00:32:37;33.70;71.70
19622;DHT22;9958;33.196;-97.114;2023-06-10T00:35:06;33.60;72.40
19622;DHT22;9958;33.196;-97.114;2023-06-10T00:37:35;33.50;71.50
19622;DHT22;9958;33.196;-97.114;2023-06-10T00:40:04;33.50;73.10
19622;DHT22;9958;33.196;-97.114;2023-06-10T00:42:37;33.40;74.80
19622;DHT22;9958;33.196;-97.114;2023-06-10T00:45:06;33.30;76.00
19622;DHT22;9958;33.196;-97.114;2023-06-10T00:47:35;33.20;76.50
19622;DHT22;9958;33.196;-97.114;2023-06-10T00:50:04;33.10;76.40
19622;DHT22;9958;33.196;-97.114;2023-06-10T00:52:34;33.00;77.00
19622;DHT22;9958;33.196;-97.114;2023-06-10T00:55:02;32.90;77.10
19622;DHT22;9958;33.196;-97.114;2023-06-10T00:57:31;32.90;77.20
19622;DHT22;9958;33.196;-97.114;2023-06-10T01:00:02;32.70;77.00
19622;DHT22;9958;33.196;-97.114;2023-06-10T01:02:33;32.70;77.00
19622;DHT22;9958;33.196;-97.114;2023-06-10T01:05:02;32.50;76.90
19622;DHT22;9958;33.196;-97.114;2023-06-10T01:07:36;32.50;77.50
19622;DHT22;9958;33.196;-97.114;2023-06-10T01:10:11;32.30;77.60
19622;DHT22;9958;33.196;-97.114;2023-06-10T01:12:43;32.20;78.90
19622;DHT22;9958;33.196;-97.114;2023-06-10T01:15:16;32.10;78.30
19622;DHT22;9958;33.196;-97.114;2023-06-10T01:18:03;32.10;78.60
19622;DHT22;9958;33.196;-97.114;2023-06-10T01:20:36;32.00;78.70
19622;DHT22;9958;33.196;-97.114;2023-06-10T01:23:08;31.90;78.50
19622;DHT22;9958;33.196;-97.114;2023-06-10T01:25:38;31.80;78.40
19622;DHT22;9958;33.196;-97.114;2023-06-10T01:28:18;31.70;78.30
19622;DHT22;9958;33.196;-97.114;2023-06-10T01:30:55;31.60;78.80
19622;DHT22;9958;33.196;-97.114;2023-06-10T01:33:29;31.50;78.20
19622;DHT22;9958;33.196;-97.114;2023-06-10T01:35:58;31.50;78.90
19622;DHT22;9958;33.196;-97.114;2023-06-10T01:38:32;31.40;79.20
19622;DHT22;9958;33.196;-97.114;2023-06-10T01:41:02;31.30;79.20
19622;DHT22;9958;33.196;-97.114;2023-06-10T01:43:34;31.30;80.40
19622;DHT22;9958;33.196;-97.114;2023-06-10T01:46:02;31.20;79.90
19622;DHT22;9958;33.196;-97.114;2023-06-10T01:48:31;31.10;80.60
19622;DHT22;9958;33.196;-97.114;2023-06-10T01:50:59;31.10;80.30
19622;DHT22;9958;33.196;-97.114;2023-06-10T01:53:29;31.00;80.50
19622;DHT22;9958;33.196;-97.114;2023-06-10T01:55:57;31.00;80.80
19622;DHT22;9958;33.196;-97.114;2023-06-10T01:58:26;30.80;81.10
19622;DHT22;9958;33.196;-97.114;2023-06-10T02:00:54;30.80;81.50
19622;DHT22;9958;33.196;-97.114;2023-06-10T02:03:22;30.70;81.90
19622;DHT22;9958;33.196;-97.114;2023-06-10T02:05:51;30.70;82.70
19622;DHT22;9958;33.196;-97.114;2023-06-10T02:08:19;30.60;83.40
19622;DHT22;9958;33.196;-97.114;2023-06-10T02:10:49;30.50;83.30
19622;DHT22;9958;33.196;-97.114;2023-06-10T02:13:17;30.50;83.80
19622;DHT22;9958;33.196;-97.114;2023-06-10T02:15:46;30.40;84.60
19622;DHT22;9958;33.196;-97.114;2023-06-10T02:18:14;30.30;85.00
19622;DHT22;9958;33.196;-97.114;2023-06-10T02:20:42;30.30;85.50
19622;DHT22;9958;33.196;-97.114;2023-06-10T02:23:11;30.20;85.70
19622;DHT22;9958;33.196;-97.114;2023-06-10T02:25:39;30.20;86.20
19622;DHT22;9958;33.196;-97.114;2023-06-10T02:28:09;30.10;86.70
19622;DHT22;9958;33.196;-97.114;2023-06-10T02:30:39;30.10;86.90
19622;DHT22;9958;33.196;-97.114;2023-06-10T02:33:08;30.00;87.30
19622;DHT22;9958;33.196;-97.114;2023-06-10T02:35:37;29.90;86.80
19622;DHT22;9958;33.196;-97.114;2023-06-10T02:38:06;29.90;87.60
19622;DHT22;9958;33.196;-97.114;2023-06-10T02:40:34;29.80;87.30
19622;DHT22;9958;33.196;-97.114;2023-06-10T02:43:02;29.80;87.50
19622;DHT22;9958;33.196;-97.114;2023-06-10T02:45:32;29.80;87.80
19622;DHT22;9958;33.196;-97.114;2023-06-10T02:48:00;29.80;88.40
19622;DHT22;9958;33.196;-97.114;2023-06-10T02:50:29;29.70;88.30
19622;DHT22;9958;33.196;-97.114;2023-06-10T02:52:57;29.70;88.30
19622;DHT22;9958;33.196;-97.114;2023-06-10T02:55:25;29.70;88.20
19622;DHT22;9958;33.196;-97.114;2023-06-10T02:57:56;29.70;88.40
19622;DHT22;9958;33.196;-97.114;2023-06-10T03:00:24;29.80;88.70
19622;DHT22;9958;33.196;-97.114;2023-06-10T03:02:54;29.80;89.00
19622;DHT22;9958;33.196;-97.114;2023-06-10T03:05:23;29.70;89.30
19622;DHT22;9958;33.196;-97.114;2023-06-10T03:07:52;29.70;90.00
19622;DHT22;9958;33.196;-97.114;2023-06-10T03:10:20;29.80;90.20
19622;DHT22;9958;33.196;-97.114;2023-06-10T03:12:48;29.80;90.70
19622;DHT22;9958;33.196;-97.114;2023-06-10T03:15:17;29.70;90.70
19622;DHT22;9958;33.196;-97.114;2023-06-10T03:17:47;29.70;90.90
19622;DHT22;9958;33.196;-97.114;2023-06-10T03:20:17;29.70;91.00
19622;DHT22;9958;33.196;-97.114;2023-06-10T03:22:45;29.70;91.20
19622;DHT22;9958;33.196;-97.114;2023-06-10T03:25:13;29.70;91.50
19622;DHT22;9958;33.196;-97.114;2023-06-10T03:27:43;29.70;91.70
19622;DHT22;9958;33.196;-97.114;2023-06-10T03:30:12;29.70;91.90
19622;DHT22;9958;33.196;-97.114;2023-06-10T03:32:40;29.70;92.00
19622;DHT22;9958;33.196;-97.114;2023-06-10T03:35:09;29.70;92.00
19622;DHT22;9958;33.196;-97.114;2023-06-10T03:37:39;29.70;92.20
19622;DHT22;9958;33.196;-97.114;2023-06-10T03:40:09;29.70;92.30
19622;DHT22;9958;33.196;-97.114;2023-06-10T03:42:37;29.70;92.40
19622;DHT22;9958;33.196;-97.114;2023-06-10T03:45:06;29.70;92.30
19622;DHT22;9958;33.196;-97.114;2023-06-10T03:47:36;29.70;92.50
19622;DHT22;9958;33.196;-97.114;2023-06-10T03:50:05;29.70;92.40
19622;DHT22;9958;33.196;-97.114;2023-06-10T03:52:34;29.70;92.50
19622;DHT22;9958;33.196;-97.114;2023-06-10T03:55:05;29.70;92.50
19622;DHT22;9958;33.196;-97.114;2023-06-10T03:57:34;29.70;92.60
19622;DHT22;9958;33.196;-97.114;2023-06-10T04:00:02;29.80;92.40
19622;DHT22;9958;33.196;-97.114;2023-06-10T04:02:34;29.80;92.60
19622;DHT22;9958;33.196;-97.114;2023-06-10T04:05:03;29.70;92.50
19622;DHT22;9958;33.196;-97.114;2023-06-10T04:07:31;29.80;92.40
19622;DHT22;9958;33.196;-97.114;2023-06-10T04:10:00;29.80;92.40
19622;DHT22;9958;33.196;-97.114;2023-06-10T04:12:31;29.80;92.50
19622;DHT22;9958;33.196;-97.114;2023-06-10T04:14:59;29.80;92.60
19622;DHT22;9958;33.196;-97.114;2023-06-10T04:17:27;29.80;92.70
19622;DHT22;9958;33.196;-97.114;2023-06-10T04:19:56;29.80;92.80
19622;DHT22;9958;33.196;-97.114;2023-06-10T04:22:24;29.80;92.90
19622;DHT22;9958;33.196;-97.114;2023-06-10T04:24:52;29.80;93.00
19622;DHT22;9958;33.196;-97.114;2023-06-10T04:27:21;29.80;93.30
19622;DHT22;9958;33.196;-97.114;2023-06-10T04:29:51;29.70;93.50
19622;DHT22;9958;33.196;-97.114;2023-06-10T04:32:19;29.70;93.90
19622;DHT22;9958;33.196;-97.114;2023-06-10T04:34:48;29.60;94.10
19622;DHT22;9958;33.196;-97.114;2023-06-10T04:37:17;29.60;94.30
19622;DHT22;9958;33.196;-97.114;2023-06-10T04:39:45;29.50;94.40
19622;DHT22;9958;33.196;-97.114;2023-06-10T04:42:13;29.50;94.70
19622;DHT22;9958;33.196;-97.114;2023-06-10T04:44:42;29.40;94.90
19622;DHT22;9958;33.196;-97.114;2023-06-10T04:47:12;29.30;95.30
19622;DHT22;9958;33.196;-97.114;2023-06-10T04:49:40;29.30;95.50
19622;DHT22;9958;33.196;-97.114;2023-06-10T04:52:09;29.20;95.60
19622;DHT22;9958;33.196;-97.114;2023-06-10T04:54:37;29.20;95.90
19622;DHT22;9958;33.196;-97.114;2023-06-10T04:57:06;29.10;96.10
19622;DHT22;9958;33.196;-97.114;2023-06-10T04:59:35;29.10;96.20
19622;DHT22;9958;33.196;-97.114;2023-06-10T05:02:05;29.10;96.30
19622;DHT22;9958;33.196;-97.114;2023-06-10T05:04:34;29.10;96.30
19622;DHT22;9958;33.196;-97.114;2023-06-10T05:07:03;29.10;96.50
19622;DHT22;9958;33.196;-97.114;2023-06-10T05:09:31;29.10;96.60
19622;DHT22;9958;33.196;-97.114;2023-06-10T05:12:00;29.00;96.70
19622;DHT22;9958;33.196;-97.114;2023-06-10T05:14:29;29.00;96.70
19622;DHT22;9958;33.196;-97.114;2023-06-10T05:16:57;29.00;96.90
19622;DHT22;9958;33.196;-97.114;2023-06-10T05:19:26;29.00;97.30
19622;DHT22;9958;33.196;-97.114;2023-06-10T05:21:56;29.00;97.00
19622;DHT22;9958;33.196;-97.114;2023-06-10T05:24:24;29.00;97.10
19622;DHT22;9958;33.196;-97.114;2023-06-10T05:26:52;29.00;97.30
19622;DHT22;9958;33.196;-97.114;2023-06-10T05:29:21;29.00;97.30
19622;DHT22;9958;33.196;-97.114;2023-06-10T05:31:49;29.00;97.50
19622;DHT22;9958;33.196;-97.114;2023-06-10T05:34:17;29.00;97.60
19622;DHT22;9958;33.196;-97.114;2023-06-10T05:36:46;29.00;97.70
19622;DHT22;9958;33.196;-97.114;2023-06-10T05:39:16;29.00;97.80
19622;DHT22;9958;33.196;-97.114;2023-06-10T05:41:45;28.90;97.90
19622;DHT22;9958;33.196;-97.114;2023-06-10T05:44:14;28.90;98.20
19622;DHT22;9958;33.196;-97.114;2023-06-10T05:46:42;28.90;98.20
19622;DHT22;9958;33.196;-97.114;2023-06-10T05:49:10;28.90;98.40
19622;DHT22;9958;33.196;-97.114;2023-06-10T05:51:39;28.80;98.60
19622;DHT22;9958;33.196;-97.114;2023-06-10T05:54:07;28.80;98.60
19622;DHT22;9958;33.196;-97.114;2023-06-10T05:56:37;28.80;98.70
19622;DHT22;9958;33.196;-97.114;2023-06-10T05:59:05;28.80;98.90
19622;DHT22;9958;33.196;-97.114;2023-06-10T06:01:33;28.70;98.90
19622;DHT22;9958;33.196;-97.114;2023-06-10T06:04:02;28.70;99.00
19622;DHT22;9958;33.196;-97.114;2023-06-10T06:06:30;28.70;99.20
19622;DHT22;9958;33.196;-97.114;2023-06-10T06:08:58;28.70;99.40
19622;DHT22;9958;33.196;-97.114;2023-06-10T06:11:27;28.70;99.40
19622;DHT22;9958;33.196;-97.114;2023-06-10T06:13:57;28.60;99.40
19622;DHT22;9958;33.196;-97.114;2023-06-10T06:16:26;28.60;99.60
19622;DHT22;9958;33.196;-97.114;2023-06-10T06:18:54;28.60;99.80
19622;DHT22;9958;33.196;-97.114;2023-06-10T06:21:22;28.60;99.90
19622;DHT22;9958;33.196;-97.114;2023-06-10T06:23:50;28.50;99.90
19622;DHT22;9958;33.196;-97.114;2023-06-10T06:26:19;28.50;99.90
19622;DHT22;9958;33.196;-97.114;2023-06-10T06:28:47;28.50;99.90
19622;DHT22;9958;33.196;-97.114;2023-06-10T06:31:17;28.40;99.90
19622;DHT22;9958;33.196;-97.114;2023-06-10T06:33:45;28.40;99.90
19622;DHT22;9958;33.196;-97.114;2023-06-10T06:36:14;28.40;99.90
19622;DHT22;9958;33.196;-97.114;2023-06-10T06:38:42;28.40;99.90
19622;DHT22;9958;33.196;-97.114;2023-06-10T06:41:10;28.40;99.90
19622;DHT22;9958;33.196;-97.114;2023-06-10T06:43:39;28.30;99.90
19622;DHT22;9958;33.196;-97.114;2023-06-10T06:46:08;28.40;99.90
19622;DHT22;9958;33.196;-97.114;2023-06-10T06:48:38;28.30;99.90
19622;DHT22;9958;33.196;-97.114;2023-06-10T06:51:06;28.30;99.90
19622;DHT22;9958;33.196;-97.114;2023-06-10T06:53:35;28.20;99.90
19622;DHT22;9958;33.196;-97.114;2023-06-10T06:56:09;28.20;99.90
19622;DHT22;9958;33.196;-97.114;2023-06-10T06:58:37;28.30;99.90
19622;DHT22;9958;33.196;-97.114;2023-06-10T07:01:05;28.20;99.90
19622;DHT22;9958;33.196;-97.114;2023-06-10T07:03:34;28.20;99.90
19622;DHT22;9958;33.196;-97.114;2023-06-10T07:06:04;28.20;99.90
19622;DHT22;9958;33.196;-97.114;2023-06-10T07:08:32;28.10;99.90
19622;DHT22;9958;33.196;-97.114;2023-06-10T07:11:00;28.10;99.90
19622;DHT22;9958;33.196;-97.114;2023-06-10T07:13:29;28.10;99.90
19622;DHT22;9958;33.196;-97.114;2023-06-10T07:15:57;28.10;99.90
19622;DHT22;9958;33.196;-97.114;2023-06-10T07:18:25;28.00;99.90
19622;DHT22;9958;33.196;-97.114;2023-06-10T07:20:54;28.00;99.90
19622;DHT22;9958;33.196;-97.114;2023-06-10T07:23:23;28.00;99.90
19622;DHT22;9958;33.196;-97.114;2023-06-10T07:25:52;28.00;99.90
19622;DHT22;9958;33.196;-97.114;2023-06-10T07:28:20;27.90;99.90
19622;DHT22;9958;33.196;-97.114;2023-06-10T07:30:48;27.90;99.90
19622;DHT22;9958;33.196;-97.114;2023-06-10T07:33:17;27.80;99.90
19622;DHT22;9958;33.196;-97.114;2023-06-10T07:35:45;27.80;99.90
19622;DHT22;9958;33.196;-97.114;2023-06-10T07:38:13;27.80;99.90
19622;DHT22;9958;33.196;-97.114;2023-06-10T07:40:43;27.70;99.90
19622;DHT22;9958;33.196;-97.114;2023-06-10T07:43:12;27.70;99.90
19622;DHT22;9958;33.196;-97.114;2023-06-10T07:45:40;27.70;99.90
19622;DHT22;9958;33.196;-97.114;2023-06-10T07:48:09;27.70;99.90
19622;DHT22;9958;33.196;-97.114;2023-06-10T07:50:37;27.70;99.90
19622;DHT22;9958;33.196;-97.114;2023-06-10T07:53:06;27.60;99.90
19622;DHT22;9958;33.196;-97.114;2023-06-10T07:55:34;27.60;99.90
19622;DHT22;9958;33.196;-97.114;2023-06-10T07:58:04;27.60;99.90
19622;DHT22;9958;33.196;-97.114;2023-06-10T08:00:32;27.60;99.90
19622;DHT22;9958;33.196;-97.114;2023-06-10T08:03:00;27.60;99.90
19622;DHT22;9958;33.196;-97.114;2023-06-10T08:05:29;27.50;99.90
19622;DHT22;9958;33.196;-97.114;2023-06-10T08:07:57;27.50;99.90
19622;DHT22;9958;33.196;-97.114;2023-06-10T08:10:26;27.50;99.90
19622;DHT22;9958;33.196;-97.114;2023-06-10T08:12:54;27.50;99.90
19622;DHT22;9958;33.196;-97.114;2023-06-10T08:15:24;27.50;99.90
19622;DHT22;9958;33.196;-97.114;2023-06-10T08:17:52;27.40;99.90
19622;DHT22;9958;33.196;-97.114;2023-06-10T08:20:21;27.40;99.90
19622;DHT22;9958;33.196;-97.114;2023-06-10T08:22:49;27.40;99.90
19622;DHT22;9958;33.196;-97.114;2023-06-10T08:25:17;27.40;99.90
19622;DHT22;9958;33.196;-97.114;2023-06-10T08:27:48;27.40;99.90
19622;DHT22;9958;33.196;-97.114;2023-06-10T08:30:17;27.50;99.90
19622;DHT22;9958;33.196;-97.114;2023-06-10T08:32:47;27.40;99.90
19622;DHT22;9958;33.196;-97.114;2023-06-10T08:35:15;27.50;99.90
19622;DHT22;9958;33.196;-97.114;2023-06-10T08:37:43;27.50;99.90
19622;DHT22;9958;33.196;-97.114;2023-06-10T08:40:13;27.50;99.90
19622;DHT22;9958;33.196;-97.114;2023-06-10T08:42:45;27.50;99.90
19622;DHT22;9958;33.196;-97.114;2023-06-10T08:45:17;27.50;99.90
19622;DHT22;9958;33.196;-97.114;2023-06-10T08:47:50;27.50;99.90
19622;DHT22;9958;33.196;-97.114;2023-06-10T08:50:19;27.50;99.90
19622;DHT22;9958;33.196;-97.114;2023-06-10T08:52:50;27.50;99.90
19622;DHT22;9958;33.196;-97.114;2023-06-10T08:55:25;27.40;99.90
19622;DHT22;9958;33.196;-97.114;2023-06-10T08:57:55;27.40;99.90
19622;DHT22;9958;33.196;-97.114;2023-06-10T09:00:23;27.40;99.90
19622;DHT22;9958;33.196;-97.114;2023-06-10T09:02:54;27.40;99.90
19622;DHT22;9958;33.196;-97.114;2023-06-10T09:05:23;27.40;99.90
19622;DHT22;9958;33.196;-97.114;2023-06-10T09:07:52;27.40;99.90
19622;DHT22;9958;33.196;-97.114;2023-06-10T09:10:21;27.40;99.90
19622;DHT22;9958;33.196;-97.114;2023-06-10T09:12:49;27.40;99.90
19622;DHT22;9958;33.196;-97.114;2023-06-10T09:15:17;27.30;99.90
19622;DHT22;9958;33.196;-97.114;2023-06-10T09:17:46;27.30;99.90
19622;DHT22;9958;33.196;-97.114;2023-06-10T09:20:16;27.30;99.90
19622;DHT22;9958;33.196;-97.114;2023-06-10T09:22:44;27.30;99.90
19622;DHT22;9958;33.196;-97.114;2023-06-10T09:25:13;27.30;99.90
19622;DHT22;9958;33.196;-97.114;2023-06-10T09:27:45;27.30;99.90
19622;DHT22;9958;33.196;-97.114;2023-06-10T09:30:26;27.20;99.90
19622;DHT22;9958;33.196;-97.114;2023-06-10T09:32:55;27.30;99.90
19622;DHT22;9958;33.196;-97.114;2023-06-10T09:35:26;27.20;99.90
19622;DHT22;9958;33.196;-97.114;2023-06-10T09:37:56;27.20;99.90
19622;DHT22;9958;33.196;-97.114;2023-06-10T09:40:25;27.20;99.90
19622;DHT22;9958;33.196;-97.114;2023-06-10T09:42:54;27.20;99.90
19622;DHT22;9958;33.196;-97.114;2023-06-10T09:45:23;27.10;99.90
19622;DHT22;9958;33.196;-97.114;2023-06-10T09:47:54;27.10;99.90
19622;DHT22;9958;33.196;-97.114;2023-06-10T09:50:24;27.10;99.90
19622;DHT22;9958;33.196;-97.114;2023-06-10T09:52:53;27.10;99.90
19622;DHT22;9958;33.196;-97.114;2023-06-10T09:55:22;27.10;99.90
19622;DHT22;9958;33.196;-97.114;2023-06-10T09:57:53;27.00;99.90
19622;DHT22;9958;33.196;-97.114;2023-06-10T10:00:23;27.10;99.90
19622;DHT22;9958;33.196;-97.114;2023-06-10T10:02:53;27.00;99.90
19622;DHT22;9958;33.196;-97.114;2023-06-10T10:05:22;27.00;99.90
19622;DHT22;9958;33.196;-97.114;2023-06-10T10:07:53;27.00;99.90
19622;DHT22;9958;33.196;-97.114;2023-06-10T10:10:22;27.00;99.90
19622;DHT22;9958;33.196;-97.114;2023-06-10T10:12:54;27.00;99.90
19622;DHT22;9958;33.196;-97.114;2023-06-10T10:15:29;27.00;99.90
19622;DHT22;9958;33.196;-97.114;2023-06-10T10:18:06;26.90;99.90
19622;DHT22;9958;33.196;-97.114;2023-06-10T10:20:37;26.90;99.90
19622;DHT22;9958;33.196;-97.114;2023-06-10T10:23:09;26.90;99.90
19622;DHT22;9958;33.196;-97.114;2023-06-10T10:25:41;26.90;99.90
19622;DHT22;9958;33.196;-97.114;2023-06-10T10:28:11;26.90;99.90
19622;DHT22;9958;33.196;-97.114;2023-06-10T10:30:41;26.90;99.90
19622;DHT22;9958;33.196;-97.114;2023-06-10T10:33:13;26.90;99.90
19622;DHT22;9958;33.196;-97.114;2023-06-10T10:35:45;26.90;99.90
19622;DHT22;9958;33.196;-97.114;2023-06-10T10:38:15;26.90;99.90
19622;DHT22;9958;33.196;-97.114;2023-06-10T10:40:45;26.90;99.90
19622;DHT22;9958;33.196;-97.114;2023-06-10T10:43:14;26.90;99.90
19622;DHT22;9958;33.196;-97.114;2023-06-10T10:45:42;26.90;99.90
19622;DHT22;9958;33.196;-97.114;2023-06-10T10:48:13;26.90;99.90
19622;DHT22;9958;33.196;-97.114;2023-06-10T10:50:42;26.90;99.90
19622;DHT22;9958;33.196;-97.114;2023-06-10T10:53:10;26.90;99.90
19622;DHT22;9958;33.196;-97.114;2023-06-10T10:55:40;26.90;99.90
19622;DHT22;9958;33.196;-97.114;2023-06-10T10:58:09;26.90;99.90
19622;DHT22;9958;33.196;-97.114;2023-06-10T11:00:44;26.80;99.90
19622;DHT22;9958;33.196;-97.114;2023-06-10T11:03:14;26.80;99.90
19622;DHT22;9958;33.196;-97.114;2023-06-10T11:05:43;26.90;99.90
19622;DHT22;9958;33.196;-97.114;2023-06-10T11:08:15;26.80;99.90
19622;DHT22;9958;33.196;-97.114;2023-06-10T11:10:52;26.80;99.90
19622;DHT22;9958;33.196;-97.114;2023-06-10T11:13:22;26.80;99.90
19622;DHT22;9958;33.196;-97.114;2023-06-10T11:15:50;26.80;99.90
19622;DHT22;9958;33.196;-97.114;2023-06-10T11:18:22;26.80;99.90
19622;DHT22;9958;33.196;-97.114;2023-06-10T11:20:55;26.80;99.90
19622;DHT22;9958;33.196;-97.114;2023-06-10T11:23:40;26.80;99.90
19622;DHT22;9958;33.196;-97.114;2023-06-10T11:26:31;26.80;99.90
19622;DHT22;9958;33.196;-97.114;2023-06-10T11:29:07;26.80;99.90
19622;DHT22;9958;33.196;-97.114;2023-06-10T11:31:49;26.80;99.90
19622;DHT22;9958;33.196;-97.114;2023-06-10T11:34:26;26.80;99.90
19622;DHT22;9958;33.196;-97.114;2023-06-10T11:36:55;26.80;99.90
19622;DHT22;9958;33.196;-97.114;2023-06-10T11:39:25;26.70;99.90
19622;DHT22;9958;33.196;-97.114;2023-06-10T11:41:55;26.70;99.90
19622;DHT22;9958;33.196;-97.114;2023-06-10T11:44:28;26.70;99.90
19622;DHT22;9958;33.196;-97.114;2023-06-10T11:46:59;26.70;99.90
19622;DHT22;9958;33.196;-97.114;2023-06-10T11:49:28;26.70;99.90
19622;DHT22;9958;33.196;-97.114;2023-06-10T11:51:56;26.70;99.90
19622;DHT22;9958;33.196;-97.114;2023-06-10T11:54:24;26.70;99.90
19622;DHT22;9958;33.196;-97.114;2023-06-10T11:56:59;26.70;99.90
19622;DHT22;9958;33.196;-97.114;2023-06-10T11:59:30;26.60;99.90
19622;DHT22;9958;33.196;-97.114;2023-06-10T12:01:59;26.60;99.90
19622;DHT22;9958;33.196;-97.114;2023-06-10T12:04:27;26.60;99.90
19622;DHT22;9958;33.196;-97.114;2023-06-10T12:06:56;26.60;99.90
19622;DHT22;9958;33.196;-97.114;2023-06-10T12:09:25;26.60;99.90
19622;DHT22;9958;33.196;-97.114;2023-06-10T12:11:57;26.70;99.90
19622;DHT22;9958;33.196;-97.114;2023-06-10T12:14:53;26.70;99.90
19622;DHT22;9958;33.196;-97.114;2023-06-10T12:17:23;26.80;99.90
19622;DHT22;9958;33.196;-97.114;2023-06-10T12:19:52;26.80;99.90
19622;DHT22;9958;33.196;-97.114;2023-06-10T12:22:20;26.90;99.90
19622;DHT22;9958;33.196;-97.114;2023-06-10T12:24:59;27.00;99.90
19622;DHT22;9958;33.196;-97.114;2023-06-10T12:27:27;27.10;99.90
19622;DHT22;9958;33.196;-97.114;2023-06-10T12:29:58;27.20;99.90
19622;DHT22;9958;33.196;-97.114;2023-06-10T12:32:38;27.30;99.90
19622;DHT22;9958;33.196;-97.114;2023-06-10T12:35:08;27.60;99.90
19622;DHT22;9958;33.196;-97.114;2023-06-10T12:37:36;28.20;99.90
19622;DHT22;9958;33.196;-97.114;2023-06-10T12:40:06;29.00;99.90
19622;DHT22;9958;33.196;-97.114;2023-06-10T12:42:36;30.30;99.90
19622;DHT22;9958;33.196;-97.114;2023-06-10T12:45:07;31.60;99.90
19622;DHT22;9958;33.196;-97.114;2023-06-10T12:47:37;32.40;99.90
19622;DHT22;9958;33.196;-97.114;2023-06-10T12:50:07;32.90;99.90
19622;DHT22;9958;33.196;-97.114;2023-06-10T12:52:35;33.00;99.90
19622;DHT22;9958;33.196;-97.114;2023-06-10T12:55:04;33.00;99.90
19622;DHT22;9958;33.196;-97.114;2023-06-10T12:57:33;32.80;99.90
19622;DHT22;9958;33.196;-97.114;2023-06-10T13:00:01;32.80;99.90
19622;DHT22;9958;33.196;-97.114;2023-06-10T13:02:36;33.10;99.90
19622;DHT22;9958;33.196;-97.114;2023-06-10T13:05:04;33.60;99.90
19622;DHT22;9958;33.196;-97.114;2023-06-10T13:07:33;33.90;99.90
19622;DHT22;9958;33.196;-97.114;2023-06-10T13:10:01;33.90;99.90
19622;DHT22;9958;33.196;-97.114;2023-06-10T13:12:29;33.80;99.90
19622;DHT22;9958;33.196;-97.114;2023-06-10T13:14:58;33.70;99.90
19622;DHT22;9958;33.196;-97.114;2023-06-10T13:17:26;33.70;99.90
19622;DHT22;9958;33.196;-97.114;2023-06-10T13:19:56;33.90;99.90
19622;DHT22;9958;33.196;-97.114;2023-06-10T13:22:24;34.40;99.90
19622;DHT22;9958;33.196;-97.114;2023-06-10T13:24:53;34.70;99.90
19622;DHT22;9958;33.196;-97.114;2023-06-10T13:27:21;35.10;99.90
19622;DHT22;9958;33.196;-97.114;2023-06-10T13:29:49;35.20;99.90
19622;DHT22;9958;33.196;-97.114;2023-06-10T13:32:18;35.10;99.90
19622;DHT22;9958;33.196;-97.114;2023-06-10T13:34:46;35.10;99.90
19622;DHT22;9958;33.196;-97.114;2023-06-10T13:37:17;35.00;99.90
19622;DHT22;9958;33.196;-97.114;2023-06-10T13:39:45;34.90;99.90
19622;DHT22;9958;33.196;-97.114;2023-06-10T13:42:16;34.80;99.90
19622;DHT22;9958;33.196;-97.114;2023-06-10T13:44:45;34.80;99.90
19622;DHT22;9958;33.196;-97.114;2023-06-10T13:47:13;34.70;99.90
19622;DHT22;9958;33.196;-97.114;2023-06-10T13:49:42;34.70;99.90
19622;DHT22;9958;33.196;-97.114;2023-06-10T13:52:10;34.50;99.90
19622;DHT22;9958;33.196;-97.114;2023-06-10T13:54:40;34.40;99.90
19622;DHT22;9958;33.196;-97.114;2023-06-10T13:57:08;34.20;99.90
19622;DHT22;9958;33.196;-97.114;2023-06-10T13:59:37;34.10;99.90
19622;DHT22;9958;33.196;-97.114;2023-06-10T14:02:05;33.90;99.90
19622;DHT22;9958;33.196;-97.114;2023-06-10T14:04:34;33.70;99.90
19622;DHT22;9958;33.196;-97.114;2023-06-10T14:07:02;33.60;99.90
19622;DHT22;9958;33.196;-97.114;2023-06-10T14:09:30;33.50;99.90
19622;DHT22;9958;33.196;-97.114;2023-06-10T14:12:00;33.30;99.90
19622;DHT22;9958;33.196;-97.114;2023-06-10T14:14:29;33.20;99.90
19622;DHT22;9958;33.196;-97.114;2023-06-10T14:16:59;33.10;99.90
19622;DHT22;9958;33.196;-97.114;2023-06-10T14:19:28;33.10;99.90
19622;DHT22;9958;33.196;-97.114;2023-06-10T14:21:56;33.10;99.90
19622;DHT22;9958;33.196;-97.114;2023-06-10T14:24:24;33.00;99.90
19622;DHT22;9958;33.196;-97.114;2023-06-10T14:26:53;33.00;99.90
19622;DHT22;9958;33.196;-97.114;2023-06-10T14:29:22;33.00;99.90
19622;DHT22;9958;33.196;-97.114;2023-06-10T14:31:53;33.00;99.90
19622;DHT22;9958;33.196;-97.114;2023-06-10T14:34:21;32.90;99.90
19622;DHT22;9958;33.196;-97.114;2023-06-10T14:36:54;32.90;99.90
19622;DHT22;9958;33.196;-97.114;2023-06-10T14:39:23;32.90;99.90
19622;DHT22;9958;33.196;-97.114;2023-06-10T14:41:51;32.80;99.90
19622;DHT22;9958;33.196;-97.114;2023-06-10T14:44:22;32.70;99.90
19622;DHT22;9958;33.196;-97.114;2023-06-10T14:46:50;32.60;99.90
19622;DHT22;9958;33.196;-97.114;2023-06-10T14:49:18;32.40;99.90
19622;DHT22;9958;33.196;-97.114;2023-06-10T14:51:46;32.30;99.90
19622;DHT22;9958;33.196;-97.114;2023-06-10T14:54:16;32.20;99.90
19622;DHT22;9958;33.196;-97.114;2023-06-10T14:56:44;32.30;99.90
19622;DHT22;9958;33.196;-97.114;2023-06-10T14:59:13;32.40;99.90
19622;DHT22;9958;33.196;-97.114;2023-06-10T15:01:43;32.40;99.90
19622;DHT22;9958;33.196;-97.114;2023-06-10T15:04:11;32.50;99.90
19622;DHT22;9958;33.196;-97.114;2023-06-10T15:06:39;32.60;99.90
19622;DHT22;9958;33.196;-97.114;2023-06-10T15:09:07;32.60;99.90
19622;DHT22;9958;33.196;-97.114;2023-06-10T15:11:36;32.70;99.90
19622;DHT22;9958;33.196;-97.114;2023-06-10T15:14:05;32.70;99.90
19622;DHT22;9958;33.196;-97.114;2023-06-10T15:16:34;32.80;99.90
19622;DHT22;9958;33.196;-97.114;2023-06-10T15:19:04;32.80;99.90
19622;DHT22;9958;33.196;-97.114;2023-06-10T15:21:34;32.80;99.90
19622;DHT22;9958;33.196;-97.114;2023-06-10T15:24:03;32.90;99.90
19622;DHT22;9958;33.196;-97.114;2023-06-10T15:26:31;33.00;99.90
19622;DHT22;9958;33.196;-97.114;2023-06-10T15:28:59;33.00;99.90